Time;durP1;ratioP1;P1;durP2;ratioP2;P2;SDS_P1;SDS_P2;PMS_P1;PMS_P2;Temp;Humidity;BMP_temperature;BMP_pressure;BME280_temperature;BME280_humidity;BME280_pressure;Samples;Min_cycle;Max_cycle;Signal;HPM_P1;HPM_P2
2021/07/08 00:00:50;;;;;;;4.13;1.90;;;;;;;;;;4947069;29;20481;-79
2021/07/08 00:03:35;;;;;;;4.63;1.45;;;;;;;;;;4936171;29;20051;-79
2021/07/08 00:06:21;;;;;;;4.93;1.85;;;;;;;;;;4933522;29;20039;-78
2021/07/08 00:09:07;;;;;;;3.42;1.85;;;;;;;;;;4934754;29;20023;-78
2021/07/08 00:11:52;;;;;;;9.57;2.30;;;;;;;;;;4929689;28;20038;-78
2021/07/08 00:14:38;;;;;;;2.45;1.70;;;;;;;;;;4948018;29;20603;-78
2021/07/08 00:17:23;;;;;;;3.50;1.55;;;;;;;;;;4929868;29;20106;-78
2021/07/08 00:20:13;;;;;;;4.47;1.63;;;;;;;;;;4938797;29;20019;-77
2021/07/08 00:22:58;;;;;;;8.35;2.20;;;;;;;;;;4943782;29;20026;-78
2021/07/08 00:25:44;;;;;;;3.63;1.83;;;;;;;;;;4938711;29;20502;-78
2021/07/08 00:28:29;;;;;;;2.13;1.60;;;;;;;;;;4937389;29;20039;-79
2021/07/08 00:31:15;;;;;;;3.38;1.70;;;;;;;;;;4934229;29;20039;-78
2021/07/08 00:34:01;;;;;;;3.50;1.60;;;;;;;;;;4940073;29;20066;-79
2021/07/08 00:36:47;;;;;;;4.40;2.10;;;;;;;;;;4938411;29;20506;-78
2021/07/08 00:39:32;;;;;;;3.55;1.73;;;;;;;;;;4927508;29;20047;-79
2021/07/08 00:42:17;;;;;;;4.00;1.85;;;;;;;;;;4949474;29;20087;-79
2021/07/08 00:45:04;;;;;;;2.90;1.55;;;;;;;;;;4948497;29;20027;-79
2021/07/08 00:47:50;;;;;;;4.72;1.83;;;;;;;;;;4921277;29;20197;-79
2021/07/08 00:50:37;;;;;;;4.82;1.85;;;;;;;;;;4938252;29;20061;-78
2021/07/08 00:53:22;;;;;;;4.90;1.98;;;;;;;;;;4931445;29;20028;-78
2021/07/08 00:56:09;;;;;;;3.17;2.10;;;;;;;;;;4946271;29;20470;-78
2021/07/08 00:59:04;;;;;;;5.57;1.70;;;;;;;;;;4942936;29;20027;-78
2021/07/08 01:01:51;;;;;;;6.45;1.77;;;;;;;;;;4945990;28;20297;-78
2021/07/08 01:04:36;;;;;;;2.15;1.67;;;;;;;;;;4941422;28;20091;-79
2021/07/08 01:07:24;;;;;;;5.45;1.55;;;;;;;;;;4939511;29;20043;-79
2021/07/08 01:10:09;;;;;;;7.35;1.95;;;;;;;;;;4937178;29;20022;-78
2021/07/08 01:12:55;;;;;;;2.88;2.00;;;;;;;;;;4946641;29;20023;-78
2021/07/08 01:15:40;;;;;;;5.53;2.50;;;;;;;;;;4937147;29;20466;-78
2021/07/08 01:18:25;;;;;;;3.03;1.88;;;;;;;;;;4934669;29;20023;-77
2021/07/08 01:21:21;;;;;;;4.10;1.80;;;;;;;;;;4932878;29;20449;-78
2021/07/08 01:24:07;;;;;;;4.55;1.92;;;;;;;;;;4946647;29;20034;-78
2021/07/08 01:26:52;;;;;;;3.63;1.70;;;;;;;;;;4931206;29;20035;-78
2021/07/08 01:29:38;;;;;;;7.10;2.72;;;;;;;;;;4951063;29;20053;-78
2021/07/08 01:32:23;;;;;;;5.47;1.92;;;;;;;;;;4935549;29;20066;-78
2021/07/08 01:35:09;;;;;;;2.17;1.50;;;;;;;;;;4939331;29;20062;-78
2021/07/08 01:37:54;;;;;;;2.72;1.98;;;;;;;;;;4940184;29;20044;-78
2021/07/08 01:40:39;;;;;;;5.28;1.85;;;;;;;;;;4938096;29;20024;-78
2021/07/08 01:43:25;;;;;;;5.53;2.25;;;;;;;;;;4929847;29;20452;-78
2021/07/08 01:46:11;;;;;;;4.35;1.83;;;;;;;;;;4930764;29;20062;-78
2021/07/08 01:48:56;;;;;;;5.63;2.17;;;;;;;;;;4948790;29;20087;-78
2021/07/08 01:51:44;;;;;;;3.50;1.90;;;;;;;;;;4934082;29;20098;-78
2021/07/08 01:54:29;;;;;;;7.35;1.80;;;;;;;;;;4933338;29;20122;-78
2021/07/08 01:57:14;;;;;;;5.82;1.75;;;;;;;;;;4932806;29;20031;-80
2021/07/08 02:00:00;;;;;;;9.15;2.50;;;;;;;;;;4937696;29;20023;-78
2021/07/08 02:02:45;;;;;;;5.63;2.25;;;;;;;;;;4949303;29;20110;-79
2021/07/08 02:05:30;;;;;;;5.80;1.70;;;;;;;;;;4939583;29;20053;-78
2021/07/08 02:08:15;;;;;;;3.75;1.70;;;;;;;;;;4935764;28;20066;-79
2021/07/08 02:11:01;;;;;;;4.28;1.95;;;;;;;;;;4934106;29;20530;-79
2021/07/08 02:13:46;;;;;;;3.22;2.03;;;;;;;;;;4933850;29;20553;-78
2021/07/08 02:16:31;;;;;;;7.75;2.05;;;;;;;;;;4936102;29;20042;-79
2021/07/08 02:19:16;;;;;;;6.68;1.83;;;;;;;;;;4931637;29;20474;-79
2021/07/08 02:22:02;;;;;;;6.25;1.90;;;;;;;;;;4927379;29;20031;-79
2021/07/08 02:24:47;;;;;;;5.05;2.17;;;;;;;;;;4933630;29;20118;-79
2021/07/08 02:27:33;;;;;;;3.97;2.00;;;;;;;;;;4930418;29;20039;-78
2021/07/08 02:30:19;;;;;;;3.70;1.98;;;;;;;;;;4932500;28;20027;-80
2021/07/08 02:33:06;;;;;;;3.33;2.20;;;;;;;;;;4934145;29;20385;-79
2021/07/08 02:35:51;;;;;;;3.72;1.80;;;;;;;;;;4933637;28;20039;-78
2021/07/08 02:38:37;;;;;;;4.35;1.90;;;;;;;;;;4934925;29;20393;-79
2021/07/08 02:41:22;;;;;;;5.80;2.17;;;;;;;;;;4936481;29;20038;-78
2021/07/08 02:44:07;;;;;;;6.15;2.15;;;;;;;;;;4931242;28;20110;-79
2021/07/08 02:46:52;;;;;;;2.60;2.15;;;;;;;;;;4941022;28;20104;-79
2021/07/08 02:49:37;;;;;;;4.78;2.08;;;;;;;;;;4932946;29;20043;-78
2021/07/08 02:52:23;;;;;;;2.25;1.58;;;;;;;;;;4943639;29;20063;-79
2021/07/08 02:55:08;;;;;;;5.40;2.42;;;;;;;;;;4940758;29;20042;-78
2021/07/08 02:57:54;;;;;;;5.88;2.60;;;;;;;;;;4932174;29;20557;-78
2021/07/08 03:00:39;;;;;;;5.05;2.17;;;;;;;;;;4936142;29;20117;-78
2021/07/08 03:03:24;;;;;;;2.38;2.00;;;;;;;;;;4940013;29;20051;-80
2021/07/08 03:06:10;;;;;;;5.65;2.03;;;;;;;;;;4937342;29;20070;-80
2021/07/08 03:08:55;;;;;;;7.35;2.25;;;;;;;;;;4947635;29;20035;-79
2021/07/08 03:11:40;;;;;;;8.85;2.53;;;;;;;;;;4925957;29;20034;-79
2021/07/08 03:14:25;;;;;;;3.72;1.98;;;;;;;;;;4934461;29;20505;-80
2021/07/08 03:17:10;;;;;;;2.90;2.10;;;;;;;;;;4935752;29;20102;-80
2021/07/08 03:19:56;;;;;;;5.50;2.10;;;;;;;;;;4931622;29;20468;-80
2021/07/08 03:22:41;;;;;;;5.00;2.13;;;;;;;;;;4929947;29;20062;-80
2021/07/08 03:25:27;;;;;;;3.95;2.25;;;;;;;;;;4936305;29;20111;-80
2021/07/08 03:28:12;;;;;;;4.28;2.08;;;;;;;;;;4938675;29;20062;-80
2021/07/08 03:30:58;;;;;;;8.43;2.30;;;;;;;;;;4934711;29;20031;-80
2021/07/08 03:33:43;;;;;;;7.13;2.50;;;;;;;;;;4938743;29;20098;-79
2021/07/08 03:36:28;;;;;;;4.18;2.00;;;;;;;;;;4931874;29;20546;-79
2021/07/08 03:39:13;;;;;;;7.13;2.42;;;;;;;;;;4932139;29;20042;-80
2021/07/08 03:41:58;;;;;;;3.97;2.20;;;;;;;;;;4937225;29;20023;-79
2021/07/08 03:44:44;;;;;;;3.72;2.15;;;;;;;;;;4930153;29;20031;-79
2021/07/08 03:47:29;;;;;;;3.28;2.28;;;;;;;;;;4941866;29;20411;-80
2021/07/08 03:50:15;;;;;;;7.55;2.22;;;;;;;;;;4937611;29;20043;-79
2021/07/08 03:53:00;;;;;;;5.43;2.05;;;;;;;;;;4942109;29;20023;-79
2021/07/08 03:55:45;;;;;;;5.70;2.38;;;;;;;;;;4938506;29;20035;-79
2021/07/08 03:58:30;;;;;;;5.35;2.55;;;;;;;;;;4940771;28;20059;-79
2021/07/08 04:01:15;;;;;;;6.18;2.35;;;;;;;;;;4946242;28;20089;-79
2021/07/08 04:04:01;;;;;;;5.97;2.22;;;;;;;;;;4936000;29;20489;-79
2021/07/08 04:06:46;;;;;;;6.88;2.08;;;;;;;;;;4935649;29;20041;-78
2021/07/08 04:09:31;;;;;;;3.15;1.92;;;;;;;;;;4943202;29;20054;-78
2021/07/08 04:12:16;;;;;;;7.38;2.60;;;;;;;;;;4938134;28;20104;-79
2021/07/08 04:15:02;;;;;;;3.45;2.22;;;;;;;;;;4935877;29;20024;-79
2021/07/08 04:17:48;;;;;;;4.00;2.20;;;;;;;;;;4940724;29;20034;-79
2021/07/08 04:20:33;;;;;;;3.63;2.20;;;;;;;;;;4941689;29;20130;-79
2021/07/08 04:23:19;;;;;;;5.47;2.17;;;;;;;;;;4934347;29;20073;-77
2021/07/08 04:26:04;;;;;;;5.75;2.50;;;;;;;;;;4930928;29;20122;-78
2021/07/08 04:28:49;;;;;;;5.45;2.10;;;;;;;;;;4931521;29;20498;-79
2021/07/08 04:31:35;;;;;;;5.00;2.10;;;;;;;;;;4937263;29;20042;-78
2021/07/08 04:34:20;;;;;;;4.43;1.95;;;;;;;;;;4939111;29;20519;-78
2021/07/08 04:37:05;;;;;;;5.45;2.92;;;;;;;;;;4950890;28;20032;-78
2021/07/08 04:39:51;;;;;;;2.30;1.83;;;;;;;;;;4930759;29;20062;-77
2021/07/08 04:42:36;;;;;;;3.45;1.90;;;;;;;;;;4941944;29;20027;-79
2021/07/08 04:45:22;;;;;;;7.03;2.70;;;;;;;;;;4943397;29;20073;-80
2021/07/08 04:48:07;;;;;;;5.72;2.42;;;;;;;;;;4944266;29;20035;-79
2021/07/08 04:50:52;;;;;;;3.92;2.38;;;;;;;;;;4928557;29;20499;-80
2021/07/08 04:53:38;;;;;;;4.82;2.72;;;;;;;;;;4925767;29;20031;-78
2021/07/08 04:56:23;;;;;;;5.38;2.47;;;;;;;;;;4943758;29;20038;-78
2021/07/08 04:59:08;;;;;;;7.85;2.60;;;;;;;;;;4942748;29;20479;-79
2021/07/08 05:01:53;;;;;;;6.15;2.75;;;;;;;;;;4936358;29;20078;-79
2021/07/08 05:04:39;;;;;;;5.68;3.13;;;;;;;;;;4939134;29;20042;-79
2021/07/08 05:07:24;;;;;;;8.98;2.90;;;;;;;;;;4935018;29;20023;-79
2021/07/08 05:10:10;;;;;;;6.72;2.78;;;;;;;;;;4943861;28;20544;-79
2021/07/08 05:12:55;;;;;;;7.95;2.70;;;;;;;;;;4931990;29;20370;-77
2021/07/08 05:15:41;;;;;;;5.28;2.83;;;;;;;;;;4937400;29;20101;-79
2021/07/08 05:18:26;;;;;;;7.68;2.88;;;;;;;;;;4944869;29;20042;-79
2021/07/08 05:21:11;;;;;;;4.60;2.83;;;;;;;;;;4937476;29;20038;-78
2021/07/08 05:23:58;;;;;;;6.97;2.40;;;;;;;;;;4943495;29;20118;-78
2021/07/08 05:26:43;;;;;;;9.52;2.70;;;;;;;;;;4942599;29;20067;-77
2021/07/08 05:29:29;;;;;;;5.85;3.05;;;;;;;;;;4928488;29;20063;-77
2021/07/08 05:32:15;;;;;;;5.93;2.65;;;;;;;;;;4932227;29;20656;-78
2021/07/08 05:35:00;;;;;;;6.38;2.47;;;;;;;;;;4939977;29;20090;-78
2021/07/08 05:37:48;;;;;;;7.55;2.72;;;;;;;;;;4931310;29;20090;-79
2021/07/08 05:40:33;;;;;;;9.02;3.58;;;;;;;;;;4941488;29;20114;-78
2021/07/08 05:43:19;;;;;;;10.70;3.53;;;;;;;;;;4939660;29;20387;-77
2021/07/08 05:46:04;;;;;;;6.30;3.10;;;;;;;;;;4943987;29;20113;-79
2021/07/08 05:48:49;;;;;;;5.53;3.28;;;;;;;;;;4934290;29;20062;-77
2021/07/08 05:51:34;;;;;;;6.78;2.90;;;;;;;;;;4934318;29;20442;-78
2021/07/08 05:54:20;;;;;;;10.57;3.05;;;;;;;;;;4934341;29;20027;-77
2021/07/08 05:57:05;;;;;;;6.32;2.80;;;;;;;;;;4925988;29;20492;-78
2021/07/08 05:59:50;;;;;;;5.95;2.95;;;;;;;;;;4934895;29;20062;-79
2021/07/08 06:02:37;;;;;;;7.68;2.65;;;;;;;;;;4917622;29;20035;-84
2021/07/08 06:05:22;;;;;;;5.53;3.35;;;;;;;;;;4940040;29;20126;-84
2021/07/08 06:08:07;;;;;;;7.07;4.13;;;;;;;;;;4938459;29;20454;-86
2021/07/08 06:10:52;;;;;;;10.13;3.92;;;;;;;;;;4945918;29;20059;-87
2021/07/08 06:13:38;;;;;;;8.18;3.60;;;;;;;;;;4932988;29;20055;-84
2021/07/08 06:16:23;;;;;;;8.30;3.90;;;;;;;;;;4931233;29;20026;-85
2021/07/08 06:19:08;;;;;;;9.20;3.70;;;;;;;;;;4946227;29;20070;-86
2021/07/08 06:21:54;;;;;;;6.45;3.50;;;;;;;;;;4928725;29;20024;-89
2021/07/08 06:24:39;;;;;;;7.57;3.88;;;;;;;;;;4948841;29;20031;-85
2021/07/08 06:27:24;;;;;;;7.63;3.55;;;;;;;;;;4940173;29;20027;-88
2021/07/08 06:30:10;;;;;;;12.30;3.35;;;;;;;;;;4948540;29;20070;-83
2021/07/08 06:32:58;;;;;;;4.97;3.50;;;;;;;;;;4927360;29;20031;-84
2021/07/08 06:35:43;;;;;;;7.40;2.58;;;;;;;;;;4934752;28;20047;-84
2021/07/08 06:38:28;;;;;;;5.53;2.92;;;;;;;;;;4933405;28;20105;-85
2021/07/08 06:41:13;;;;;;;9.00;2.80;;;;;;;;;;4937386;29;20158;-84
2021/07/08 06:43:59;;;;;;;5.25;2.58;;;;;;;;;;4931346;29;20379;-85
2021/07/08 06:46:51;;;;;;;5.47;2.75;;;;;;;;;;4936858;29;20540;-85
2021/07/08 06:49:36;;;;;;;8.52;2.55;;;;;;;;;;4927179;29;20035;-85
2021/07/08 06:52:22;;;;;;;4.18;2.70;;;;;;;;;;4932224;29;20027;-86
2021/07/08 06:55:07;;;;;;;4.88;2.70;;;;;;;;;;4944414;29;20055;-85
2021/07/08 06:57:53;;;;;;;5.63;2.67;;;;;;;;;;4937529;29;20031;-85
2021/07/08 07:00:39;;;;;;;6.68;2.80;;;;;;;;;;4930417;29;20023;-85
2021/07/08 07:03:24;;;;;;;4.32;2.55;;;;;;;;;;4932069;29;20039;-82
2021/07/08 07:06:09;;;;;;;3.85;2.30;;;;;;;;;;4935948;29;20093;-83
2021/07/08 07:08:54;;;;;;;4.28;2.30;;;;;;;;;;4940740;29;20034;-85
2021/07/08 07:11:39;;;;;;;2.88;2.25;;;;;;;;;;4929799;29;20034;-85
2021/07/08 07:14:25;;;;;;;5.85;2.53;;;;;;;;;;4939460;29;20130;-86
2021/07/08 07:17:10;;;;;;;10.48;5.10;;;;;;;;;;4934377;29;20079;-87
2021/07/08 07:19:55;;;;;;;5.70;3.22;;;;;;;;;;4933698;29;20091;-85
2021/07/08 07:22:44;;;;;;;4.88;2.72;;;;;;;;;;4926872;29;20049;-85
2021/07/08 07:25:30;;;;;;;;;;;;;;;;;;4930816;29;20113;-86
2021/07/08 07:28:15;;;;;;;4.40;2.38;;;;;;;;;;4926988;29;19911;-84
2021/07/08 07:31:00;;;;;;;5.55;2.50;;;;;;;;;;4935202;29;20058;-83
2021/07/08 07:33:46;;;;;;;4.00;2.70;;;;;;;;;;4943966;29;20106;-83
2021/07/08 07:36:31;;;;;;;3.08;2.42;;;;;;;;;;4930928;29;20035;-83
2021/07/08 07:39:17;;;;;;;5.57;2.45;;;;;;;;;;4935009;29;20024;-84
2021/07/08 07:42:02;;;;;;;6.03;2.70;;;;;;;;;;4935144;29;20023;-84
2021/07/08 07:44:48;;;;;;;8.38;2.78;;;;;;;;;;4935574;29;20026;-86
2021/07/08 07:47:33;;;;;;;5.18;3.50;;;;;;;;;;4937215;29;20030;-86
2021/07/08 07:50:19;;;;;;;8.30;3.20;;;;;;;;;;4929485;29;20027;-86
2021/07/08 07:53:04;;;;;;;5.57;2.83;;;;;;;;;;4943135;29;20023;-85
2021/07/08 07:55:50;;;;;;;6.70;3.10;;;;;;;;;;4931246;29;20082;-84
2021/07/08 07:58:36;;;;;;;46.25;38.50;;;;;;;;;;4932314;29;20462;-85
2021/07/08 08:01:21;;;;;;;17.92;12.95;;;;;;;;;;4934852;29;20498;-86
2021/07/08 08:04:06;;;;;;;10.80;4.45;;;;;;;;;;4930942;28;20036;-85
2021/07/08 08:09:55;;;;;;;5.75;2.60;;;;;;;;;;4934330;29;20042;-84
2021/07/08 08:12:41;;;;;;;4.68;2.95;;;;;;;;;;4933860;29;20723;-84
2021/07/08 08:15:26;;;;;;;4.30;2.88;;;;;;;;;;4936597;29;20034;-83
2021/07/08 08:18:11;;;;;;;7.35;3.40;;;;;;;;;;4930049;29;20083;-84
2021/07/08 08:20:56;;;;;;;8.93;5.63;;;;;;;;;;4935413;29;20550;-84
2021/07/08 08:23:42;;;;;;;18.60;14.63;;;;;;;;;;4931743;29;20035;-85
2021/07/08 08:26:27;;;;;;;25.00;18.70;;;;;;;;;;4935033;29;20034;-84
2021/07/08 08:29:13;;;;;;;8.13;5.20;;;;;;;;;;4920469;29;20693;-85
2021/07/08 08:31:58;;;;;;;6.30;3.58;;;;;;;;;;4931125;29;20110;-84
2021/07/08 08:34:43;;;;;;;6.68;2.75;;;;;;;;;;4946292;29;20023;-85
2021/07/08 08:37:28;;;;;;;5.60;2.97;;;;;;;;;;4934641;29;20039;-86
2021/07/08 08:40:15;;;;;;;5.93;2.92;;;;;;;;;;4929603;29;20028;-86
2021/07/08 08:43:00;;;;;;;6.15;3.03;;;;;;;;;;4933461;29;20032;-85
2021/07/08 08:45:47;;;;;;;4.10;2.92;;;;;;;;;;4937860;29;20023;-85
2021/07/08 08:48:34;;;;;;;5.38;2.42;;;;;;;;;;4936299;29;20079;-85
2021/07/08 08:51:21;;;;;;;3.88;2.55;;;;;;;;;;4934926;29;20059;-85
2021/07/08 08:54:06;;;;;;;6.07;3.13;;;;;;;;;;4935457;29;20098;-85
2021/07/08 08:56:51;;;;;;;4.85;2.80;;;;;;;;;;4936510;29;20115;-87
2021/07/08 08:59:37;;;;;;;7.35;4.25;;;;;;;;;;4931553;29;20034;-85
2021/07/08 09:02:22;;;;;;;13.13;8.70;;;;;;;;;;4938375;29;20051;-87
2021/07/08 09:05:17;;;;;;;5.53;3.72;;;;;;;;;;4935681;29;20110;-86
2021/07/08 09:08:21;;;;;;;6.40;3.78;;;;;;;;;;4935761;29;20115;-85
2021/07/08 09:11:23;;;;;;;5.65;3.08;;;;;;;;;;4937957;29;20038;-85
2021/07/08 09:14:10;;;;;;;4.82;2.75;;;;;;;;;;4931645;28;20016;-84
2021/07/08 09:17:14;;;;;;;4.90;3.38;;;;;;;;;;4926787;29;20087;-86
2021/07/08 09:20:08;;;;;;;5.28;3.10;;;;;;;;;;4954742;28;20083;-87
2021/07/08 09:23:06;;;;;;;6.82;2.92;;;;;;;;;;4948240;29;20026;-87
2021/07/08 09:25:51;;;;;;;4.82;2.80;;;;;;;;;;4932704;29;20039;-87
2021/07/08 09:28:37;;;;;;;3.63;2.80;;;;;;;;;;4938678;29;20033;-87
2021/07/08 09:31:23;;;;;;;7.22;4.32;;;;;;;;;;4939409;29;20035;-87
2021/07/08 09:34:15;;;;;;;9.45;7.78;;;;;;;;;;4933483;29;20023;-87
2021/07/08 09:37:09;;;;;;;14.88;12.05;;;;;;;;;;4933402;29;20241;-88
2021/07/08 09:39:55;;;;;;;5.13;3.17;;;;;;;;;;4936335;29;20470;-85
2021/07/08 09:42:45;;;;;;;5.22;3.38;;;;;;;;;;4936970;29;20047;-86
2021/07/08 09:45:30;;;;;;;2.72;2.33;;;;;;;;;;4943201;29;20050;-87
2021/07/08 09:48:19;;;;;;;2.65;2.42;;;;;;;;;;4932450;29;20126;-87
2021/07/08 09:51:05;;;;;;;5.78;2.90;;;;;;;;;;4945999;29;20027;-85
2021/07/08 09:53:51;;;;;;;3.70;2.90;;;;;;;;;;4946675;29;20038;-87
2021/07/08 09:56:43;;;;;;;4.93;2.72;;;;;;;;;;4939064;29;20031;-85
2021/07/08 09:59:35;;;;;;;3.70;2.30;;;;;;;;;;4935989;29;20024;-83
2021/07/08 10:02:30;;;;;;;3.10;2.72;;;;;;;;;;4943875;29;20039;-85
2021/07/08 10:05:16;;;;;;;5.53;2.83;;;;;;;;;;4938531;28;20066;-87
2021/07/08 10:08:02;;;;;;;3.47;2.50;;;;;;;;;;4934236;29;20059;-87
2021/07/08 10:10:47;;;;;;;4.90;2.70;;;;;;;;;;4940069;29;20030;-88
2021/07/08 10:13:33;;;;;;;2.95;2.20;;;;;;;;;;4935206;29;20030;-86
2021/07/08 10:16:18;;;;;;;3.15;2.42;;;;;;;;;;4933817;29;20031;-86
2021/07/08 10:19:05;;;;;;;2.88;2.20;;;;;;;;;;4938983;29;20111;-87
2021/07/08 10:21:52;;;;;;;4.35;2.30;;;;;;;;;;4951563;28;20114;-83
2021/07/08 10:24:37;;;;;;;5.15;2.25;;;;;;;;;;4925113;29;20110;-82
2021/07/08 10:27:23;;;;;;;4.85;2.47;;;;;;;;;;4938130;29;20033;-82
2021/07/08 10:30:09;;;;;;;9.57;4.78;;;;;;;;;;4932612;29;20122;-80
2021/07/08 10:32:58;;;;;;;4.55;2.70;;;;;;;;;;4932391;29;20039;-80
2021/07/08 10:35:45;;;;;;;2.20;1.70;;;;;;;;;;4917598;29;20050;-81
2021/07/08 10:38:31;;;;;;;2.67;1.98;;;;;;;;;;4940551;29;20035;-81
2021/07/08 10:41:29;;;;;;;2.53;1.98;;;;;;;;;;4931959;29;20031;-82
2021/07/08 10:44:33;;;;;;;4.32;2.10;;;;;;;;;;4946531;28;20034;-81
2021/07/08 10:47:37;;;;;;;2.85;2.25;;;;;;;;;;4944125;29;20019;-80
2021/07/08 10:50:32;;;;;;;3.53;2.08;;;;;;;;;;4935713;29;20031;-81
2021/07/08 10:53:20;;;;;;;3.25;2.45;;;;;;;;;;4919318;29;20405;-81
2021/07/08 10:56:08;;;;;;;2.10;1.90;;;;;;;;;;4936244;29;20042;-83
2021/07/08 10:58:56;;;;;;;4.53;2.97;;;;;;;;;;4933849;29;20029;-88
2021/07/08 11:01:42;;;;;;;3.67;2.28;;;;;;;;;;4926609;28;20046;-85
2021/07/08 11:04:48;;;;;;;2.00;1.80;;;;;;;;;;4944192;28;20042;-87
2021/07/08 11:07:46;;;;;;;3.30;1.98;;;;;;;;;;4942505;28;20486;-84
2021/07/08 11:10:33;;;;;;;3.45;1.98;;;;;;;;;;4942431;28;20496;-86
2021/07/08 11:13:28;;;;;;;2.45;2.10;;;;;;;;;;4949754;28;20073;-85
2021/07/08 11:16:32;;;;;;;4.28;2.08;;;;;;;;;;4943358;28;20485;-85
2021/07/08 11:19:21;;;;;;;6.13;3.63;;;;;;;;;;4938173;28;20031;-85
2021/07/08 11:22:09;;;;;;;5.80;3.00;;;;;;;;;;4931544;28;20025;-83
2021/07/08 11:24:55;;;;;;;2.55;2.15;;;;;;;;;;4943883;28;20035;-84
2021/07/08 11:27:44;;;;;;;2.25;1.70;;;;;;;;;;4941268;28;20117;-84
2021/07/08 11:30:30;;;;;;;4.30;2.10;;;;;;;;;;4934579;29;20027;-87
2021/07/08 11:33:19;;;;;;;2.60;1.70;;;;;;;;;;4937836;28;20027;-85
2021/07/08 11:36:13;;;;;;;3.08;2.00;;;;;;;;;;4937106;28;20379;-83
2021/07/08 11:38:59;;;;;;;5.65;1.65;;;;;;;;;;4933871;29;20023;-85
2021/07/08 11:41:45;;;;;;;2.08;1.55;;;;;;;;;;4937703;29;20035;-84
2021/07/08 11:44:32;;;;;;;2.70;2.22;;;;;;;;;;4929622;28;20118;-84
2021/07/08 11:47:20;;;;;;;19.38;16.05;;;;;;;;;;4935181;28;20051;-83
2021/07/08 11:50:26;;;;;;;5.47;2.47;;;;;;;;;;4930321;28;20446;-84
2021/07/08 11:53:18;;;;;;;3.63;2.10;;;;;;;;;;4943292;28;20065;-86
2021/07/08 11:56:03;;;;;;;2.90;1.70;;;;;;;;;;4937410;28;20035;-86
2021/07/08 11:58:49;;;;;;;2.15;1.88;;;;;;;;;;4939766;28;20093;-86
2021/07/08 12:01:40;;;;;;;2.00;1.80;;;;;;;;;;4942194;28;20035;-87
2021/07/08 12:04:27;;;;;;;20.50;15.00;;;;;;;;;;4937664;28;20042;-85
2021/07/08 12:07:12;;;;;;;14.07;10.90;;;;;;;;;;4938980;29;20024;-85
2021/07/08 12:09:57;;;;;;;4.47;2.90;;;;;;;;;;4927676;28;20410;-85
2021/07/08 12:12:43;;;;;;;2.50;1.92;;;;;;;;;;4933901;28;20378;-85
2021/07/08 12:15:28;;;;;;;7.38;1.90;;;;;;;;;;4937283;28;20031;-85
2021/07/08 12:18:14;;;;;;;3.78;2.05;;;;;;;;;;4938544;28;20027;-86
2021/07/08 12:20:59;;;;;;;3.35;1.70;;;;;;;;;;4928631;28;20480;-84
2021/07/08 12:23:44;;;;;;;2.95;1.75;;;;;;;;;;4944594;28;20761;-85
2021/07/08 12:26:40;;;;;;;3.22;2.13;;;;;;;;;;4943589;28;20027;-84
2021/07/08 12:29:26;;;;;;;3.33;1.80;;;;;;;;;;4934794;28;20355;-84
2021/07/08 12:32:15;;;;;;;5.38;2.03;;;;;;;;;;4937153;28;20495;-85
2021/07/08 12:35:00;;;;;;;4.72;2.95;;;;;;;;;;4939485;29;20058;-85
2021/07/08 12:37:49;;;;;;;2.22;1.70;;;;;;;;;;4937393;28;20031;-88
2021/07/08 12:40:34;;;;;;;4.15;1.80;;;;;;;;;;4938376;28;20390;-86
2021/07/08 12:43:19;;;;;;;6.55;1.77;;;;;;;;;;4936105;28;20027;-85
2021/07/08 12:46:09;;;;;;;3.88;1.60;;;;;;;;;;4935180;28;20438;-85
2021/07/08 12:48:54;;;;;;;4.95;1.80;;;;;;;;;;4952530;28;20039;-82
2021/07/08 12:51:40;;;;;;;3.00;1.77;;;;;;;;;;4929278;28;20348;-85
2021/07/08 12:54:28;;;;;;;3.38;1.90;;;;;;;;;;4946305;28;20019;-87
2021/07/08 12:57:15;;;;;;;5.35;1.75;;;;;;;;;;4943619;28;20038;-83
2021/07/08 13:00:03;;;;;;;3.45;1.65;;;;;;;;;;4948146;28;20030;-79
2021/07/08 13:02:51;;;;;;;1.75;1.35;;;;;;;;;;4938759;28;20102;-80
2021/07/08 13:05:41;;;;;;;11.88;7.72;;;;;;;;;;4937435;28;20023;-80
2021/07/08 13:08:26;;;;;;;;;;;;;;;;;;4945963;28;20026;-81
2021/07/08 13:11:16;;;;;;;2.80;1.20;;;;;;;;;;4936987;28;19997;-81
2021/07/08 13:14:17;;;;;;;2.95;1.35;;;;;;;;;;4936471;28;20066;-81
2021/07/08 13:17:07;;;;;;;1.45;1.35;;;;;;;;;;4933650;28;20027;-81
2021/07/08 13:19:59;;;;;;;4.18;1.90;;;;;;;;;;4939790;28;20125;-82
2021/07/08 13:22:46;;;;;;;1.42;1.27;;;;;;;;;;4936708;28;20549;-82
2021/07/08 13:25:31;;;;;;;2.47;1.17;;;;;;;;;;4936763;28;20019;-82
2021/07/08 13:28:26;;;;;;;2.58;1.13;;;;;;;;;;4936956;28;20031;-80
2021/07/08 13:31:15;;;;;;;3.78;1.38;;;;;;;;;;4946318;28;20030;-81
2021/07/08 13:34:00;;;;;;;1.45;1.35;;;;;;;;;;4946885;28;20024;-82
2021/07/08 13:36:45;;;;;;;2.25;1.73;;;;;;;;;;4941028;28;20023;-84
2021/07/08 13:39:31;;;;;;;3.03;1.83;;;;;;;;;;4951354;28;20075;-81
2021/07/08 13:42:23;;;;;;;2.85;1.80;;;;;;;;;;4945826;28;20041;-83
2021/07/08 13:45:28;;;;;;;3.70;1.65;;;;;;;;;;4947609;28;20027;-86
2021/07/08 13:48:17;;;;;;;5.43;3.92;;;;;;;;;;4946201;28;20035;-81
2021/07/08 13:51:06;;;;;;;3.97;2.17;;;;;;;;;;4940906;28;20094;-83
2021/07/08 13:53:51;;;;;;;4.20;2.00;;;;;;;;;;4946806;28;20042;-82
2021/07/08 13:56:36;;;;;;;3.72;1.90;;;;;;;;;;4956897;28;20030;-82
2021/07/08 13:59:22;;;;;;;3.75;1.92;;;;;;;;;;4931749;28;20075;-81
2021/07/08 14:02:07;;;;;;;2.30;1.58;;;;;;;;;;4945522;29;20107;-81
2021/07/08 14:04:53;;;;;;;3.42;1.98;;;;;;;;;;4943295;29;20042;-82
2021/07/08 14:07:38;;;;;;;2.97;2.17;;;;;;;;;;4946322;29;20038;-82
2021/07/08 14:10:23;;;;;;;2.50;1.95;;;;;;;;;;4949054;29;20042;-84
2021/07/08 14:13:09;;;;;;;1.83;1.60;;;;;;;;;;4949380;29;20027;-82
2021/07/08 14:15:54;;;;;;;4.80;3.22;;;;;;;;;;4942788;29;20020;-84
2021/07/08 14:18:39;;;;;;;2.88;2.33;;;;;;;;;;4955615;29;20224;-82
2021/07/08 14:21:26;;;;;;;1.95;1.50;;;;;;;;;;4934795;29;20039;-84
2021/07/08 14:24:14;;;;;;;3.60;1.70;;;;;;;;;;4941198;29;20015;-87
2021/07/08 14:27:02;;;;;;;4.15;1.70;;;;;;;;;;4946075;29;20064;-92
2021/07/08 14:29:48;;;;;;;2.22;1.60;;;;;;;;;;4951422;29;20144;-91
2021/07/08 14:32:36;;;;;;;4.07;2.03;;;;;;;;;;4960254;29;20023;-90
2021/07/08 14:35:21;;;;;;;2.50;1.80;;;;;;;;;;4943161;29;20466;-87
2021/07/08 14:38:07;;;;;;;3.60;1.70;;;;;;;;;;4948625;29;20047;-91
2021/07/08 14:40:56;;;;;;;3.22;2.25;;;;;;;;;;4956344;29;20035;-89
2021/07/08 14:43:47;;;;;;;2.92;1.98;;;;;;;;;;4955916;29;20027;-89
2021/07/08 14:46:34;;;;;;;2.05;1.80;;;;;;;;;;4959954;29;20033;-88
2021/07/08 14:49:20;;;;;;;3.25;2.30;;;;;;;;;;4954488;28;20007;-89
2021/07/08 14:52:06;;;;;;;3.17;2.15;;;;;;;;;;4962920;29;20032;-89
2021/07/08 14:54:51;;;;;;;2.33;2.13;;;;;;;;;;4961265;29;20371;-89
2021/07/08 14:57:39;;;;;;;2.30;2.05;;;;;;;;;;4961793;29;20018;-91
2021/07/08 15:04:07;;;;;;;;;;;;;;;;;;;;;
2021/07/08 15:15:06;;;;;;;2.95;2.25;;;;;;;;;;4984092;28;20026;-89
2021/07/08 15:17:52;;;;;;;2.83;2.50;;;;;;;;;;4976610;28;20022;-90
2021/07/08 15:23:44;;;;;;;3.13;2.63;;;;;;;;;;4976617;28;20042;-88
2021/07/08 15:26:29;;;;;;;2.17;1.98;;;;;;;;;;4984217;28;20528;-88
2021/07/08 15:29:15;;;;;;;3.03;2.70;;;;;;;;;;4977436;28;20019;-90
2021/07/08 15:32:00;;;;;;;4.97;2.47;;;;;;;;;;4972270;28;20042;-89
2021/07/08 15:34:45;;;;;;;3.22;2.30;;;;;;;;;;4989762;28;20019;-89
2021/07/08 15:37:31;;;;;;;3.58;2.67;;;;;;;;;;4985035;28;20034;-89
2021/07/08 15:40:16;;;;;;;2.53;2.17;;;;;;;;;;4977564;28;20026;-89
2021/07/08 15:43:01;;;;;;;2.83;2.53;;;;;;;;;;4975327;28;20039;-88
2021/07/08 15:45:50;;;;;;;3.85;2.25;;;;;;;;;;4968295;28;20050;-88
2021/07/08 15:48:38;;;;;;;2.83;2.08;;;;;;;;;;4968010;28;20011;-89
2021/07/08 15:51:23;;;;;;;6.43;2.60;;;;;;;;;;4975042;28;20049;-88
2021/07/08 15:54:09;;;;;;;6.20;2.20;;;;;;;;;;4970355;28;20011;-88
2021/07/08 15:56:54;;;;;;;4.20;2.83;;;;;;;;;;4972709;28;20018;-88
2021/07/08 15:59:40;;;;;;;5.47;2.35;;;;;;;;;;4977633;28;20019;-88
2021/07/08 16:02:26;;;;;;;2.63;2.22;;;;;;;;;;4975670;28;20038;-89
2021/07/08 16:05:11;;;;;;;3.42;2.60;;;;;;;;;;4983715;28;20033;-88
2021/07/08 16:07:56;;;;;;;4.85;3.65;;;;;;;;;;4965552;28;20023;-89
2021/07/08 16:10:42;;;;;;;7.35;5.00;;;;;;;;;;4967681;28;20031;-89
2021/07/08 16:13:30;;;;;;;5.28;3.00;;;;;;;;;;4981271;28;20031;-89
2021/07/08 16:16:15;;;;;;;5.32;3.90;;;;;;;;;;4977208;28;20035;-88
2021/07/08 16:19:02;;;;;;;4.47;2.97;;;;;;;;;;4979116;28;20018;-90
2021/07/08 16:21:49;;;;;;;3.03;2.78;;;;;;;;;;4985379;28;20026;-88
2021/07/08 16:24:34;;;;;;;4.43;2.75;;;;;;;;;;4971170;28;20006;-89
2021/07/08 16:27:20;;;;;;;3.10;2.80;;;;;;;;;;4982077;28;20039;-89
2021/07/08 16:30:06;;;;;;;3.38;2.92;;;;;;;;;;4982420;28;20030;-88
2021/07/08 16:32:52;;;;;;;5.75;2.90;;;;;;;;;;4976222;28;20106;-88
2021/07/08 16:35:37;;;;;;;10.52;5.55;;;;;;;;;;4979745;28;20007;-88
2021/07/08 16:38:22;;;;;;;10.63;7.32;;;;;;;;;;4973477;28;20015;-89
2021/07/08 16:41:07;;;;;;;4.05;2.72;;;;;;;;;;4984804;28;20074;-89
2021/07/08 16:43:56;;;;;;;5.70;2.95;;;;;;;;;;4970208;28;20014;-89
2021/07/08 16:46:41;;;;;;;3.90;2.60;;;;;;;;;;4959695;28;20018;-89
2021/07/08 16:49:27;;;;;;;4.10;3.22;;;;;;;;;;4990069;28;20051;-89
2021/07/08 16:52:12;;;;;;;3.30;2.72;;;;;;;;;;4974738;28;20023;-88
2021/07/08 16:54:57;;;;;;;2.13;2.03;;;;;;;;;;4976873;28;20030;-88
2021/07/08 16:57:43;;;;;;;2.20;2.00;;;;;;;;;;4959578;28;20030;-88